Latest Weather Observations for Edenhope

IDV60801

Issued at 9:12 pm EDT Tuesday 23 October 2018 (issued every 10 minutes, with the page automatically refreshed every 10 minutes)

About weather observations | Map of weather stations | Latest weather observations for VIC | Other Formats
Station Details ID: 079099 Name: EDENHOPE AIRPORT Lat: -37.02 Lon: 141.27 Height: 155.0 m
Data from the previous 72 hours. | See also: Recent months at Edenhope
Date/Time
EDT
Temp
°C
App
Temp
°C
Dew
Point
°C
Rel
Hum
%
Delta-T
°C
Wind Press
QNH
hPa
Press
MSL
hPa
Rain since
9am
mm
Dir  Spd
km/h
Gust
km/h
Spd
kts
Gust
kts
23/09:00pm 9.1 6.2 2.7 64 2.7 SSW 7 11 4 6 - - 0.0
23/08:30pm 10.1 6.9 2.9 61 3.1 SSW 9 15 5 8 - - 0.0
23/08:00pm 10.5 7.4 3.5 62 3.1 SSW 9 13 5 7 - - 0.0
23/07:30pm 11.5 7.4 2.5 54 3.9 SW 13 20 7 11 - - 0.0
23/07:00pm 13.3 8.5 2.5 48 4.8 SW 17 24 9 13 - - 0.0
23/06:30pm 12.3 7.4 2.2 50 4.4 SW 17 26 9 14 - - 0.0
23/06:00pm 14.7 9.7 3.8 48 5.0 SW 19 28 10 15 - - 0.0
23/05:30pm 13.9 8.8 4.2 52 4.5 SW 20 32 11 17 - - 0.0
23/05:00pm 14.9 9.6 4.9 51 4.7 SW 22 39 12 21 - - 0.0
23/04:30pm 14.5 8.2 3.9 49 4.9 SW 26 39 14 21 - - 0.0
23/04:00pm 15.5 10.3 3.3 44 5.6 WSW 20 33 11 18 - - 0.0
23/03:30pm 16.5 11.1 4.5 45 5.7 WSW 22 33 12 18 - - 0.0
23/03:00pm 15.9 10.8 4.0 45 5.6 WSW 20 35 11 19 - - 0.0
23/02:30pm 15.3 9.6 4.7 49 5.0 WSW 24 35 13 19 - - 0.0
23/02:00pm 15.9 10.6 4.9 48 5.2 SW 22 33 12 18 - - 0.0
23/01:30pm 16.4 10.8 5.4 48 5.3 SW 24 43 13 23 - - 0.0
23/01:00pm 15.8 10.3 6.0 52 4.8 WSW 24 33 13 18 - - 0.0
23/12:30pm 14.8 10.5 6.9 59 3.9 WSW 19 30 10 16 - - 0.0
23/12:00pm 14.3 10.8 7.1 62 3.5 WSW 15 24 8 13 - - 0.0
23/11:30am 14.1 11.0 7.4 64 3.3 W 13 20 7 11 - - 0.0
23/11:00am 12.7 9.1 8.4 75 2.2 SW 17 24 9 13 - - 0.0
23/10:30am 14.3 10.2 8.0 66 3.2 W 19 26 10 14 - - 0.0
23/10:00am 13.7 10.1 8.3 70 2.7 WSW 17 24 9 13 - - 0.0
23/09:30am 13.7 9.7 8.1 69 2.8 WSW 19 24 10 13 - - 0.0
23/09:00am 12.3 9.1 10.0 86 1.2 WSW 17 24 9 13 - - -
23/08:30am 11.2 9.8 10.9 98 0.2 WSW 9 15 5 8 - - -
23/08:00am 10.6 9.4 10.3 98 0.2 W 7 11 4 6 - - -
23/07:30am 8.7 7.5 8.1 96 0.3 W 4 6 2 3 - - -
23/07:00am 8.6 7.7 7.8 95 0.4 WNW 2 4 1 2 - - -
23/06:30am 8.8 7.6 8.0 95 0.4 WNW 4 4 2 2 - - -
23/06:00am 9.8 8.8 8.9 94 0.4 NNW 4 6 2 3 - - -
23/05:30am 10.1 9.1 9.0 93 0.5 NW 4 6 2 3 - - -
23/05:00am 10.1 9.1 8.9 92 0.6 W 4 7 2 4 - - -
23/04:30am 10.8 9.9 9.4 91 0.7 SW 4 6 2 3 - - -
23/04:00am 11.3 9.9 9.7 90 0.8 W 7 9 4 5 - - -
23/03:30am 11.8 11.1 10.0 89 0.9 SW 4 7 2 4 - - -
23/03:00am 11.8 10.1 9.9 88 1.0 WSW 9 13 5 7 - - 0.0
23/02:30am 11.7 11.6 9.3 85 1.2 CALM 0 4 0 2 - - -
23/02:00am 11.6 10.1 9.0 84 1.3 SW 7 13 4 7 - - -
23/01:30am 12.3 10.8 9.0 80 1.7 SSW 7 13 4 7 - - -
23/01:00am 12.2 10.2 8.7 79 1.8 SSW 9 15 5 8 - - -
23/12:30am 12.5 11.0 8.4 76 2.0 S 6 11 3 6 - - -
23/12:00am 12.5 10.5 8.6 77 2.0 SW 9 19 5 10 - - -
 
Date/Time
EDT
Temp
°C
App
Temp
°C
Dew
Point
°C
Rel
Hum
%
Delta-T
°C
Wind Press
QNH
hPa
Press
MSL
hPa
Rain since
9am
mm
Dir  Spd
km/h
Gust
km/h
Spd
kts
Gust
kts
22/11:30pm 12.6 11.1 8.3 75 2.1 WSW 6 15 3 8 - - -
22/11:00pm 13.0 11.0 8.7 75 2.2 SW 9 11 5 6 - - -
22/10:30pm 13.4 11.7 8.5 72 2.5 SSW 7 13 4 7 - - -
22/10:00pm 13.8 11.6 8.0 68 2.9 SSW 9 15 5 8 - - -
22/09:30pm 14.3 11.7 9.3 72 2.6 SW 13 28 7 15 - - -
22/09:00pm 15.1 13.1 10.3 73 2.5 SSW 11 20 6 11 - - 0.0
22/08:30pm 15.5 12.8 9.0 65 3.4 SW 13 20 7 11 - - -
22/08:00pm 16.3 13.7 9.3 63 3.7 SW 13 22 7 12 - - -
22/07:30pm 17.0 14.4 7.9 55 4.6 SW 11 22 6 12 - - -
22/07:00pm 19.0 14.8 8.4 50 5.5 WSW 20 35 11 19 - - -
22/06:30pm 22.2 18.5 9.4 44 6.9 WSW 19 30 10 16 - - -
22/06:00pm 23.2 18.6 9.6 42 7.4 WSW 24 35 13 19 - - -
22/05:30pm 24.4 20.0 8.8 37 8.5 W 22 30 12 16 - - -
22/05:00pm 25.9 20.2 6.5 29 10.2 WNW 26 43 14 23 - - -
22/04:30pm 26.9 22.8 7.9 30 10.3 NW 19 28 10 15 - - -
22/04:00pm 26.3 22.2 7.8 31 10.0 WNW 19 28 10 15 - - -
22/03:30pm 26.3 22.4 6.9 29 10.3 WNW 17 26 9 14 - - -
22/03:00pm 26.1 21.7 6.7 29 10.2 WNW 19 24 10 13 - - -
22/02:30pm 26.0 22.3 8.0 32 9.7 WNW 17 28 9 15 - - 0.0
22/02:00pm 25.8 20.4 6.4 29 10.2 WNW 24 35 13 19 - - 0.0
22/01:30pm 25.9 19.7 6.0 28 10.4 WNW 28 39 15 21 - - 0.0
22/01:00pm 25.8 19.3 4.9 26 10.7 NW 28 44 15 24 - - 0.0
22/12:30pm 24.5 18.2 3.8 26 10.3 NW 26 39 14 21 - - 0.0
22/12:00pm 25.3 19.2 5.0 27 10.3 NNW 26 39 14 21 - - 0.0
22/11:30am 24.5 19.0 5.8 30 9.6 NNW 24 33 13 18 - - 0.0
22/11:00am 23.8 18.3 5.7 31 9.2 N 24 37 13 20 - - 0.0
22/10:30am 22.3 16.8 5.7 34 8.4 N 24 35 13 19 - - 0.0
22/10:00am 20.5 15.3 5.3 37 7.5 N 22 39 12 21 - - 0.0
22/09:30am 18.8 13.9 6.9 46 6.0 N 22 33 12 18 - - 0.0
22/09:00am 17.3 11.8 5.9 47 5.6 N 24 33 13 18 - - 0.0
22/08:30am 15.7 10.8 5.3 50 5.0 N 20 30 11 16 - - 0.0
22/08:00am 14.3 9.5 4.9 53 4.4 NNE 19 30 10 16 - - 0.0
22/07:30am 13.1 8.3 4.8 57 3.9 NNE 19 24 10 13 - - 0.0
22/07:00am 12.7 8.7 5.1 60 3.5 NNE 15 22 8 12 - - 0.0
22/06:30am 12.1 8.2 5.3 63 3.2 NNE 15 22 8 12 - - 0.0
22/06:00am 11.8 8.3 5.4 65 3.0 NNE 13 19 7 10 - - 0.0
22/05:30am 11.6 8.2 5.7 67 2.8 NE 13 19 7 10 - - 0.0
22/05:00am 11.1 7.8 6.3 72 2.3 NE 13 20 7 11 - - 0.0
22/04:30am 11.2 8.0 6.9 75 2.1 NE 13 19 7 10 - - 0.0
22/04:00am 11.3 8.2 7.2 76 2.0 NE 13 15 7 8 - - 0.0
22/03:30am 11.1 8.5 7.6 79 1.7 NE 11 17 6 9 - - 0.0
22/03:00am 11.0 8.7 7.5 79 1.7 NE 9 13 5 7 - - 0.0
22/02:30am 11.1 8.9 7.8 80 1.6 NE 9 13 5 7 - - 0.0
22/02:00am 11.4 9.3 8.1 80 1.6 ENE 9 15 5 8 - - 0.0
22/01:30am 10.9 9.1 8.0 82 1.4 ENE 7 11 4 6 - - 0.0
22/01:00am 11.2 9.1 8.2 82 1.5 ENE 9 13 5 7 - - 0.0
22/12:30am 11.5 9.4 8.2 80 1.6 ENE 9 13 5 7 - - 0.0
22/12:00am 11.4 8.9 8.3 81 1.5 ENE 11 13 6 7 - - 0.0
 
Date/Time
EDT
Temp
°C
App
Temp
°C
Dew
Point
°C
Rel
Hum
%
Delta-T
°C
Wind Press
QNH
hPa
Press
MSL
hPa
Rain since
9am
mm
Dir  Spd
km/h
Gust
km/h
Spd
kts
Gust
kts
21/11:30pm 10.2 8.2 8.6 90 0.8 ENE 9 9 5 5 - - 0.0
21/11:00pm 10.1 8.7 8.7 91 0.7 E 6 7 3 4 - - 0.0
21/10:30pm 10.8 9.5 9.2 90 0.8 E 6 7 3 4 - - 0.0
21/10:00pm 11.2 9.9 9.1 87 1.1 E 6 7 3 4 - - 0.0
21/09:30pm 12.0 10.7 9.2 83 1.4 E 6 6 3 3 - - 0.0
21/09:00pm 13.4 12.5 9.3 76 2.1 SE 4 4 2 2 - - 0.0
21/08:30pm 14.3 13.4 9.1 71 2.7 SSE 4 4 2 2 - - 0.0
21/08:00pm 15.8 15.3 9.2 65 3.4 SSW 2 4 1 2 - - 0.0
21/07:30pm 17.4 16.5 9.1 58 4.3 SSW 4 4 2 2 - - 0.0
21/07:00pm 18.8 18.2 9.0 53 5.2 W 2 4 1 2 - - 0.0
21/06:30pm 18.7 17.3 8.7 52 5.2 W 6 9 3 5 - - 0.0
21/06:00pm 19.0 18.1 9.2 53 5.2 WNW 4 11 2 6 - - 0.0
21/05:30pm 18.9 17.9 8.8 52 5.3 W 4 9 2 5 - - 0.0
21/05:00pm 18.6 17.1 8.3 51 5.3 NW 6 17 3 9 - - 0.0
21/04:30pm 19.3 17.9 8.9 51 5.5 WSW 6 13 3 7 - - 0.0
21/04:00pm 18.6 17.1 9.1 54 5.0 SW 7 13 4 7 - - 0.0
21/03:30pm 18.6 17.2 8.8 53 5.1 WNW 6 13 3 7 - - 0.0
21/03:00pm 18.0 16.4 8.8 55 4.8 WNW 7 11 4 6 - - 0.0
21/02:30pm 18.0 15.8 8.0 52 5.1 NW 9 15 5 8 - - 0.0
21/02:00pm 17.5 14.3 8.4 55 4.7 W 15 22 8 12 - - 0.0
21/01:30pm 16.9 14.6 7.3 53 4.8 W 9 15 5 8 - - 0.0
21/01:00pm 16.1 14.3 7.8 58 4.2 WNW 7 15 4 8 - - 0.0
21/12:30pm 15.7 13.4 7.5 58 4.1 W 9 15 5 8 - - 0.0
21/12:00pm 16.7 14.4 7.6 55 4.6 W 9 17 5 9 - - 0.0
21/11:30am 16.6 14.6 8.8 60 4.0 NNW 9 13 5 7 - - 0.0
21/11:00am 14.4 12.4 8.8 69 2.9 WNW 9 13 5 7 - - 0.0
21/10:30am 13.8 11.8 8.8 72 2.5 NW 9 13 5 7 - - 0.0
21/10:00am 13.1 11.7 9.7 80 1.8 WNW 7 11 4 6 - - 0.0
21/09:30am 11.7 10.4 10.1 90 0.8 WNW 7 13 4 7 - - 0.0
21/09:00am 10.6 9.6 10.4 99 0.1 NW 6 9 3 5 - - 0.0
21/08:30am 9.3 8.0 9.2 99 0.0 NW 6 7 3 4 - - 0.0
21/08:00am 8.0 7.1 7.9 99 0.0 N 2 4 1 2 - - 0.0
21/07:30am 5.7 4.7 5.6 99 0.0 CALM 0 0 0 0 - - 0.0
21/07:00am 4.2 2.9 3.9 98 0.1 CALM 0 2 0 1 - - 0.0
21/06:30am 4.1 2.7 3.7 97 0.2 CALM 0 4 0 2 - - 0.0
21/06:00am 4.4 3.1 4.0 97 0.2 CALM 0 0 0 0 - - 0.0
21/05:30am 4.4 3.1 4.0 97 0.2 CALM 0 0 0 0 - - 0.0
21/05:00am 5.1 3.9 4.5 96 0.3 CALM 0 0 0 0 - - 0.0
21/04:30am 5.6 4.5 5.0 96 0.3 CALM 0 0 0 0 - - 0.0
21/04:00am 5.8 4.7 5.1 95 0.3 CALM 0 0 0 0 - - 0.0
21/03:30am 6.6 5.7 5.9 95 0.3 CALM 0 0 0 0 - - 0.0
21/03:00am 5.7 4.5 4.8 94 0.4 CALM 0 0 0 0 - - 0.0
21/02:30am 6.7 5.7 5.8 94 0.4 CALM 0 0 0 0 - - 0.0
21/02:00am 6.8 5.9 5.9 94 0.4 CALM 0 0 0 0 - - 0.0
21/01:30am 6.3 5.2 5.3 93 0.4 CALM 0 0 0 0 - - 0.0
21/01:00am 7.2 6.3 6.0 92 0.5 CALM 0 0 0 0 - - 0.0
21/12:30am 7.1 6.1 5.7 91 0.6 CALM 0 0 0 0 - - 0.0
21/12:00am 8.0 7.2 6.5 90 0.7 CALM 0 0 0 0 - - 0.0
 
Date/Time
EDT
Temp
°C
App
Temp
°C
Dew
Point
°C
Rel
Hum
%
Delta-T
°C
Wind Press
QNH
hPa
Press
MSL
hPa
Rain since
9am
mm
Dir  Spd
km/h
Gust
km/h
Spd
kts
Gust
kts
20/11:30pm 8.3 7.5 6.4 88 0.9 CALM 0 0 0 0 - - 0.0
20/11:00pm 8.1 6.4 5.7 85 1.1 WSW 4 4 2 2 - - 0.0
20/10:30pm 8.9 8.0 6.2 83 1.3 CALM 0 2 0 1 - - 0.0
20/10:00pm 9.9 8.4 6.6 80 1.6 SW 4 6 2 3 - - 0.0
20/09:30pm 10.0 8.0 6.2 77 1.8 WSW 6 7 3 4 - - 0.0

Other Formats:

Comma delimited format used in spreadsheet applications
http://www.bom.gov.au/fwo/IDV60801/IDV60801.95832.axf

JavaScript Object Notation format (JSON) in row-major order
http://www.bom.gov.au/fwo/IDV60801/IDV60801.95832.json